Station: Newdegate  

  Atmospheric Gas Attenuation - ITU Rec 676-11   ----------------- dB/100km -----------------
Date Time Temp RH % AH g/m3 Dew Point Wind Direction Speed kph Gust kph Barometer mB Rainfall Since 9am 24GHz 47GHz 76GHz 122GHz 134GHz 241GHz
08/05 09:30 15.2 64 8.31 8.4 22 30 1033.9 0 18.9 25.8 38.9 101.7 94.5 324.9
08/05 09:20 14.8 67 8.49 8.7 24 26 1033.9 0 19.3 26.2 39.8 104.1 97.4 334.8
08/05 09:10 14.6 67 8.38 8.7 24 28 1034 0 19.1 26.1 39.4 103.2 96.2 330.6
08/05 09:00 14.2 71 8.67 9 19 24 1033.9 0 19.7 26.7 40.8 106.8 100.5 345.7
08/05 08:50 13.9 74 8.87 9.3 19 20 1034 0 20.1 27.1 41.8 109.4 103.6 356.5
08/05 08:40 13.3 76 8.78 9.1 24 26 1033.9 0 20.0 27.1 41.7 109.3 103.2 354.9
08/05 08:30 13.1 80 9.13 9.7 19 28 1034 0 20.7 27.8 43.3 113.5 108.2 372.6
08/05 08:20 12.5 86 9.46 10.2 15 17 1033.9 0 21.5 28.5 45.0 118.1 113.7 391.6
08/05 08:10 11.9 90 9.53 10.3 11 13 1033.8 0 21.7 28.8 45.7 119.8 115.6 398.1
08/05 08:00 10.7 91 8.94 9.3 7 9 1033.7 0 20.4 28.2 43.8 114.8 109.0 374.8
08/05 07:50 9.8 92 8.54 8.5 7 9 1033.7 0 19.6 27.8 42.6 111.5 104.6 359.2
08/05 07:40 9.1 92 8.17 7.8 6 7 1033.6 0 18.9 27.4 41.4 108.2 100.3 344.1
08/05 07:30 8.5 92 7.86 7.3 4 4 1033.5 0 18.2 27.0 40.3 105.5 96.7 331.5
08/05 07:20 7.8 91 7.43 6.5 4 4 1033.4 0 17.3 26.5 38.9 101.6 91.5 313.3
08/05 07:10 7.2 91 7.15 5.9 4 4 1033.4 0 16.8 26.2 38.0 99.2 88.3 302.0
08/05 07:00 6.5 92 6.9 5.3 7 7 1033.2 0 16.3 26.0 37.2 97.2 85.6 292.5
08/05 06:50 6.4 91 6.78 5 7 7 1033.2 0 16.0 25.8 36.8 96.0 84.1 287.0
08/05 06:40 5.9 91 6.57 4.5 7 9 1033 0 15.6 25.6 36.1 94.3 81.7 278.6
08/05 06:30 5.7 91 6.48 4.3 6 6 1032.9 0 15.4 25.5 35.8 93.5 80.7 274.9
08/05 06:20 5.3 90 6.24 3.8 4 4 1032.9 0 14.9 25.2 35.0 91.3 77.8 264.7
08/05 06:10 7 91 7.05 5.6 0 0 1032.9 0 16.6 26.1 37.6 98.3 87.1 297.8
08/05 06:00 6.7 91 6.92 5.3 2 4 1032.8 0 16.3 25.9 37.2 97.2 85.7 292.6
08/05 05:50 6.1 89 6.51 4.5 6 6 1032.8 0 15.4 25.4 35.8 93.3 80.6 275.0
08/05 05:40 6.6 89 6.72 5 6 6 1032.8 0 15.9 25.6 36.4 95.1 83.0 283.3
08/05 05:30 6.9 91 7.01 5.5 6 7 1032.8 0 16.5 26.0 37.5 97.9 86.7 296.2
08/05 05:20 7.2 91 7.15 5.8 7 7 1032.9 0 16.8 26.2 38.0 99.1 88.3 301.9
08/05 05:10 6.9 89 6.85 5.3 4 4 1032.9 0 16.1 25.8 36.8 96.2 84.5 288.5
08/05 05:00 7.3 90 7.11 5.8 7 9 1032.7 0 16.7 26.1 37.7 98.5 87.6 299.5
08/05 04:50 7.2 89 6.99 5.6 9 9 1032.6 0 16.4 25.9 37.3 97.3 86.0 294.1
08/05 04:40 7 89 6.9 5.4 9 9 1032.6 0 16.2 25.8 37.0 96.6 85.0 290.5
08/05 04:30 7 90 6.98 5.5 9 11 1032.5 0 16.4 25.9 37.3 97.4 86.1 294.3
08/05 04:20 6.9 89 6.85 5.2 9 9 1032.4 0 16.1 25.7 36.8 96.1 84.4 288.4
08/05 04:10 7 89 6.9 5.3 7 7 1032.4 0 16.2 25.8 37.0 96.5 85.0 290.4
08/05 04:00 6.8 89 6.81 5.1 7 9 1032.3 0 16.1 25.7 36.7 95.8 84.0 286.8
08/05 03:50 6.9 88 6.78 5 4 4 1032.3 0 16.0 25.6 36.5 95.3 83.5 285.0
08/05 03:40 7.6 89 7.17 5.9 0 0 1032.3 0 16.8 26.1 37.8 98.8 88.1 301.2
08/05 03:30 7.1 87 6.79 5.1 4 7 1032.3 0 16.0 25.6 36.5 95.2 83.4 284.7
08/05 03:20 7.7 86 6.98 5.6 6 6 1032.3 0 16.4 25.7 37.0 96.6 85.3 291.6
08/05 03:10 8.1 87 7.24 6 7 7 1032.4 0 16.9 26.0 37.9 99.0 88.5 302.6
08/05 03:00 8.5 87 7.43 6.5 11 13 1032.3 0 17.3 26.2 38.5 100.6 90.6 310.2
08/05 02:50 8.5 86 7.35 6.3 11 11 1032.3 0 17.1 26.1 38.1 99.7 89.5 306.4
08/05 02:40 8.9 85 7.45 6.6 11 11 1032.4 0 17.3 26.2 38.4 100.3 90.4 309.6
08/05 02:30 9.1 85 7.54 6.7 11 15 1032.4 0 17.5 26.3 38.6 101.0 91.4 313.1
08/05 02:20 9.1 84 7.46 6.5 11 13 1032.4 0 17.4 26.1 38.3 100.1 90.3 309.3
08/05 02:10 9.5 84 7.65 6.9 11 11 1032.3 0 17.7 26.3 38.9 101.7 92.4 316.8
08/05 02:00 9.7 84 7.75 7.1 13 17 1032.3 0 17.9 26.4 39.2 102.6 93.6 320.8
08/05 01:50 9.8 83 7.7 7 13 13 1032.3 0 17.8 26.3 39.0 101.9 92.8 318.0
08/05 01:40 10.1 83 7.85 7.3 11 13 1032.3 0 18.1 26.5 39.4 103.1 94.5 323.9
08/05 01:30 10.2 82 7.81 7.3 13 17 1032.3 0 18.1 26.4 39.2 102.6 93.8 321.6
08/05 01:20 10.4 82 7.9 7.4 11 13 1032.4 0 18.2 26.5 39.5 103.3 94.8 325.1
08/05 01:10 10.7 82 8.06 7.7 13 15 1032.4 0 18.6 26.7 40.0 104.7 96.6 331.5
08/05 01:00 10.8 82 8.11 7.9 11 15 1032.5 0 18.7 26.7 40.2 105.1 97.2 333.5
08/05 00:50 10.7 82 8.06 7.7 11 11 1032.5 0 18.6 26.7 40.0 104.7 96.6 331.5
08/05 00:40 10.9 82 8.16 7.9 13 13 1032.4 0 18.8 26.8 40.3 105.5 97.7 335.5
08/05 00:30 11 82 8.21 8.1 13 15 1032.4 0 18.9 26.8 40.5 106.0 98.3 337.4
08/05 00:20 11 82 8.21 8 13 15 1032.5 0 18.9 26.8 40.5 106.0 98.3 337.5
08/05 00:10 11.2 82 8.31 8.2 9 11 1032.5 0 19.1 26.9 40.8 106.8 99.4 341.4
08/05 00:00 11.3 82 8.37 8.3 13 17 1032.5 0 19.2 27.0 41.0 107.3 100.1 343.8
07/05 23:50 11.2 84 8.52 8.6 11 13 1032.5 0 19.5 27.3 41.7 109.2 102.3 351.5
07/05 23:40 10.9 84 8.36 8.3 9 11 1032.4 0 19.2 27.1 41.2 107.8 100.5 345.1
07/05 23:30 10.8 84 8.3 8.2 9 15 1032.3 0 19.1 27.0 41.0 107.2 99.8 342.6
07/05 23:20 10.8 84 8.3 8.2 7 7 1032.3 0 19.1 27.0 41.0 107.2 99.8 342.6
07/05 23:10 10.9 84 8.36 8.3 9 13 1032.3 0 19.2 27.1 41.2 107.8 100.5 345.1
07/05 23:00 11 84 8.41 8.4 9 13 1032.3 0 19.3 27.1 41.3 108.2 101.0 347.0
07/05 22:50 11.1 84 8.46 8.5 13 15 1032.3 0 19.4 27.2 41.5 108.6 101.6 349.0
07/05 22:40 11.1 84 8.46 8.5 13 15 1032.4 0 19.4 27.2 41.5 108.6 101.6 349.0
07/05 22:30 11 84 8.41 8.4 13 19 1032.3 0 19.3 27.1 41.3 108.2 101.0 347.0
07/05 22:20 10.9 84 8.36 8.3 13 17 1032.2 0 19.2 27.1 41.2 107.7 100.4 345.0
07/05 22:10 10.9 83 8.26 8.1 13 15 1032.3 0 19.0 26.9 40.7 106.6 99.1 340.2
07/05 22:00 10.8 81 8.01 7.7 13 17 1032.3 0 18.5 26.5 39.8 104.0 95.8 328.7
07/05 21:50 11.2 79 8.01 7.8 15 17 1032.3 0 18.4 26.4 39.6 103.5 95.3 327.0
07/05 21:40 11.4 79 8.11 8 11 13 1032.3 0 18.6 26.5 39.9 104.3 96.4 330.9
07/05 21:30 11.2 79 8.01 7.7 13 17 1032.2 0 18.4 26.4 39.5 103.5 95.3 327.0
07/05 21:20 11.3 78 7.96 7.6 13 15 1032.2 0 18.3 26.3 39.3 102.8 94.5 324.2
07/05 21:10 11.4 77 7.9 7.5 13 15 1032.1 0 18.2 26.2 39.0 102.0 93.5 320.9
07/05 21:00 11.4 76 7.8 7.3 13 17 1032 0 18.0 26.0 38.6 100.9 92.2 316.2
07/05 20:50 11.2 74 7.5 6.7 15 17 1032 0 17.3 25.6 37.5 97.9 88.4 302.9
07/05 20:40 11.3 73 7.45 6.6 13 15 1031.9 0 17.2 25.5 37.2 97.2 87.6 300.2
07/05 20:30 11.4 72 7.39 6.5 13 15 1031.9 0 17.1 25.3 36.9 96.4 86.7 297.0
07/05 20:20 11.7 71 7.43 6.6 13 15 1031.9 0 17.2 25.3 36.9 96.5 86.9 297.7
07/05 20:10 11.8 71 7.47 6.7 11 15 1031.9 0 17.3 25.3 37.1 96.8 87.3 299.2
07/05 20:00 11.9 70 7.41 6.6 9 13 1031.9 0 17.1 25.2 36.8 96.1 86.4 296.1
07/05 19:50 12.1 70 7.51 6.8 11 13 1031.9 0 17.3 25.3 37.1 96.9 87.5 299.9
07/05 19:40 12.1 70 7.51 6.8 11 11 1032 0 17.3 25.3 37.1 96.9 87.5 300.0
07/05 19:30 12.2 70 7.55 6.9 11 13 1031.9 0 17.4 25.4 37.2 97.2 87.9 301.4
07/05 19:20 12.2 68 7.34 6.6 11 11 1031.9 0 17.0 25.0 36.4 94.9 85.2 291.8
07/05 19:10 12.6 67 7.41 6.6 11 11 1031.9 0 17.1 25.0 36.4 95.2 85.7 293.5
07/05 19:00 12.9 67 7.55 6.9 13 17 1031.9 0 17.4 25.2 36.9 96.3 87.1 298.7
07/05 18:50 12.9 67 7.55 6.9 13 17 1031.7 0 17.4 25.2 36.9 96.3 87.1 298.7
07/05 18:40 13.3 64 7.39 6.8 15 17 1031.7 0 17.0 24.8 36.0 94.1 84.6 289.9
07/05 18:30 13.6 65 7.65 7.2 17 20 1031.6 0 17.6 25.1 36.9 96.5 87.6 300.6
07/05 18:20 13.7 64 7.58 7 15 17 1031.7 0 17.4 25.0 36.6 95.7 86.6 297.1
07/05 18:10 13.9 64 7.67 7.2 15 17 1031.7 0 17.6 25.1 36.9 96.4 87.6 300.4
07/05 18:00 14.1 62 7.52 6.9 17 20 1031.6 0 17.3 24.8 36.2 94.5 85.4 292.8
07/05 17:50 14.5 60 7.46 7 19 20 1031.4 0 17.1 24.6 35.8 93.4 84.2 288.7
07/05 17:40 14.8 60 7.6 7.1 20 24 1031.3 0 17.4 24.7 36.2 94.5 85.7 293.8
07/05 17:30 15.1 59 7.61 7.2 19 26 1031.3 0 17.4 24.6 36.1 94.3 85.5 293.1
07/05 17:20 15.4 57 7.49 7.1 19 22 1031.2 0 17.1 24.4 35.5 92.7 83.6 286.7
07/05 17:10 15.6 57 7.58 7.1 17 19 1031.1 0 17.3 24.4 35.7 93.3 84.5 289.9
07/05 17:00 16.2 55 7.58 7.2 24 32 1031 0 17.3 24.3 35.5 92.6 83.9 287.7

Last Refresh: 08-May-2026 11:05:32

Bureau of Meteorology